sensor_id;sensor_type;location;lat;lon;timestamp;temperature;humidity
51853;DHT22;37894;53.172;6.598;2022-10-16T00:01:36;12.30;99.90
51853;DHT22;37894;53.172;6.598;2022-10-16T00:04:03;12.30;99.90
51853;DHT22;37894;53.172;6.598;2022-10-16T00:06:29;12.30;99.90
51853;DHT22;37894;53.172;6.598;2022-10-16T00:08:55;12.30;99.90
51853;DHT22;37894;53.172;6.598;2022-10-16T00:11:24;11.70;99.90
51853;DHT22;37894;53.172;6.598;2022-10-16T00:13:55;12.20;99.90
51853;DHT22;37894;53.172;6.598;2022-10-16T00:16:20;12.20;99.90
51853;DHT22;37894;53.172;6.598;2022-10-16T00:18:46;12.20;99.90
51853;DHT22;37894;53.172;6.598;2022-10-16T00:21:16;12.30;99.90
51853;DHT22;37894;53.172;6.598;2022-10-16T00:23:42;12.30;99.90
51853;DHT22;37894;53.172;6.598;2022-10-16T00:26:11;12.20;99.90
51853;DHT22;37894;53.172;6.598;2022-10-16T00:28:37;12.20;99.90
51853;DHT22;37894;53.172;6.598;2022-10-16T00:31:11;12.20;99.90
51853;DHT22;37894;53.172;6.598;2022-10-16T00:33:38;12.20;99.90
51853;DHT22;37894;53.172;6.598;2022-10-16T00:36:05;12.20;99.90
51853;DHT22;37894;53.172;6.598;2022-10-16T00:38:31;12.20;99.90
51853;DHT22;37894;53.172;6.598;2022-10-16T00:40:57;12.30;99.90
51853;DHT22;37894;53.172;6.598;2022-10-16T00:46:02;12.20;99.90
51853;DHT22;37894;53.172;6.598;2022-10-16T00:48:28;12.20;99.90
51853;DHT22;37894;53.172;6.598;2022-10-16T00:50:54;12.20;99.90
51853;DHT22;37894;53.172;6.598;2022-10-16T00:53:21;12.20;99.90
51853;DHT22;37894;53.172;6.598;2022-10-16T00:55:48;12.20;99.90
51853;DHT22;37894;53.172;6.598;2022-10-16T00:58:13;12.20;99.90
51853;DHT22;37894;53.172;6.598;2022-10-16T01:00:39;12.20;99.90
51853;DHT22;37894;53.172;6.598;2022-10-16T01:03:27;12.20;99.90
51853;DHT22;37894;53.172;6.598;2022-10-16T01:08:34;12.20;99.90
51853;DHT22;37894;53.172;6.598;2022-10-16T01:11:33;12.30;99.90
51853;DHT22;37894;53.172;6.598;2022-10-16T01:14:02;12.30;99.90
51853;DHT22;37894;53.172;6.598;2022-10-16T01:19:19;12.30;99.90
51853;DHT22;37894;53.172;6.598;2022-10-16T01:21:48;12.30;99.90
51853;DHT22;37894;53.172;6.598;2022-10-16T01:24:40;12.30;99.90
51853;DHT22;37894;53.172;6.598;2022-10-16T01:27:11;12.20;99.90
51853;DHT22;37894;53.172;6.598;2022-10-16T01:30:21;12.30;99.90
51853;DHT22;37894;53.172;6.598;2022-10-16T01:35:19;12.30;99.90
51853;DHT22;37894;53.172;6.598;2022-10-16T01:37:59;12.30;99.90
51853;DHT22;37894;53.172;6.598;2022-10-16T01:40:28;12.30;99.90
51853;DHT22;37894;53.172;6.598;2022-10-16T01:43:05;12.40;99.90
51853;DHT22;37894;53.172;6.598;2022-10-16T01:45:33;12.40;99.90
51853;DHT22;37894;53.172;6.598;2022-10-16T01:48:01;12.40;99.90
51853;DHT22;37894;53.172;6.598;2022-10-16T01:50:32;12.40;99.90
51853;DHT22;37894;53.172;6.598;2022-10-16T01:53:02;12.40;99.90
51853;DHT22;37894;53.172;6.598;2022-10-16T01:55:32;12.50;99.90
51853;DHT22;37894;53.172;6.598;2022-10-16T01:57:59;12.50;99.90
51853;DHT22;37894;53.172;6.598;2022-10-16T02:00:28;12.50;99.90
51853;DHT22;37894;53.172;6.598;2022-10-16T02:02:55;12.50;99.90
51853;DHT22;37894;53.172;6.598;2022-10-16T02:05:30;12.50;99.90
51853;DHT22;37894;53.172;6.598;2022-10-16T02:07:56;12.50;99.90
51853;DHT22;37894;53.172;6.598;2022-10-16T02:10:23;12.50;99.90
51853;DHT22;37894;53.172;6.598;2022-10-16T02:12:59;12.50;99.90
51853;DHT22;37894;53.172;6.598;2022-10-16T02:15:26;12.60;99.90
51853;DHT22;37894;53.172;6.598;2022-10-16T02:17:51;12.50;99.90
51853;DHT22;37894;53.172;6.598;2022-10-16T02:20:20;12.60;99.90
51853;DHT22;37894;53.172;6.598;2022-10-16T02:22:49;12.60;99.90
51853;DHT22;37894;53.172;6.598;2022-10-16T02:25:22;12.60;99.90
51853;DHT22;37894;53.172;6.598;2022-10-16T02:28:30;12.60;99.90
51853;DHT22;37894;53.172;6.598;2022-10-16T02:31:01;12.60;99.90
51853;DHT22;37894;53.172;6.598;2022-10-16T02:33:29;12.60;99.90
51853;DHT22;37894;53.172;6.598;2022-10-16T02:35:57;12.60;99.90
51853;DHT22;37894;53.172;6.598;2022-10-16T02:38:23;12.60;99.90
51853;DHT22;37894;53.172;6.598;2022-10-16T02:40:50;12.60;99.90
51853;DHT22;37894;53.172;6.598;2022-10-16T02:43:16;12.90;99.90
51853;DHT22;37894;53.172;6.598;2022-10-16T02:45:42;12.60;99.90
51853;DHT22;37894;53.172;6.598;2022-10-16T02:48:08;12.70;99.90
51853;DHT22;37894;53.172;6.598;2022-10-16T02:50:34;12.70;99.90
51853;DHT22;37894;53.172;6.598;2022-10-16T02:52:59;12.70;99.90
51853;DHT22;37894;53.172;6.598;2022-10-16T02:55:25;12.70;99.90
51853;DHT22;37894;53.172;6.598;2022-10-16T02:57:53;12.70;99.90
51853;DHT22;37894;53.172;6.598;2022-10-16T03:00:20;12.70;99.90
51853;DHT22;37894;53.172;6.598;2022-10-16T03:02:46;12.70;99.90
51853;DHT22;37894;53.172;6.598;2022-10-16T03:05:12;12.70;99.90
51853;DHT22;37894;53.172;6.598;2022-10-16T03:07:39;12.80;99.90
51853;DHT22;37894;53.172;6.598;2022-10-16T03:10:05;12.80;99.90
51853;DHT22;37894;53.172;6.598;2022-10-16T03:12:31;12.80;99.90
51853;DHT22;37894;53.172;6.598;2022-10-16T03:14:57;12.80;99.90
51853;DHT22;37894;53.172;6.598;2022-10-16T03:17:24;12.80;99.90
51853;DHT22;37894;53.172;6.598;2022-10-16T03:19:49;12.90;99.90
51853;DHT22;37894;53.172;6.598;2022-10-16T03:22:15;12.90;99.90
51853;DHT22;37894;53.172;6.598;2022-10-16T03:24:41;12.90;99.90
51853;DHT22;37894;53.172;6.598;2022-10-16T03:27:06;12.90;99.90
51853;DHT22;37894;53.172;6.598;2022-10-16T03:29:32;12.90;99.90
51853;DHT22;37894;53.172;6.598;2022-10-16T03:31:58;12.90;99.90
51853;DHT22;37894;53.172;6.598;2022-10-16T03:34:24;12.90;99.90
51853;DHT22;37894;53.172;6.598;2022-10-16T03:36:51;12.80;99.90
51853;DHT22;37894;53.172;6.598;2022-10-16T03:39:17;12.80;99.90
51853;DHT22;37894;53.172;6.598;2022-10-16T03:41:42;12.80;99.90
51853;DHT22;37894;53.172;6.598;2022-10-16T03:44:08;12.80;99.90
51853;DHT22;37894;53.172;6.598;2022-10-16T03:46:34;12.70;99.90
51853;DHT22;37894;53.172;6.598;2022-10-16T03:48:59;12.80;99.90
51853;DHT22;37894;53.172;6.598;2022-10-16T03:51:25;12.70;99.90
51853;DHT22;37894;53.172;6.598;2022-10-16T03:53:51;12.70;99.90
51853;DHT22;37894;53.172;6.598;2022-10-16T03:56:17;12.60;99.90
51853;DHT22;37894;53.172;6.598;2022-10-16T03:58:43;12.60;99.90
51853;DHT22;37894;53.172;6.598;2022-10-16T04:01:08;12.60;99.90
51853;DHT22;37894;53.172;6.598;2022-10-16T04:03:34;12.60;99.90
51853;DHT22;37894;53.172;6.598;2022-10-16T04:06:00;12.70;99.90
51853;DHT22;37894;53.172;6.598;2022-10-16T04:08:25;12.60;99.90
51853;DHT22;37894;53.172;6.598;2022-10-16T04:10:51;12.60;99.90
51853;DHT22;37894;53.172;6.598;2022-10-16T04:13:17;12.60;99.90
51853;DHT22;37894;53.172;6.598;2022-10-16T04:15:44;12.60;99.90
51853;DHT22;37894;53.172;6.598;2022-10-16T04:18:11;12.50;99.90
51853;DHT22;37894;53.172;6.598;2022-10-16T04:20:37;12.50;99.90
51853;DHT22;37894;53.172;6.598;2022-10-16T04:23:02;12.50;99.90
51853;DHT22;37894;53.172;6.598;2022-10-16T04:25:28;12.50;99.90
51853;DHT22;37894;53.172;6.598;2022-10-16T04:27:54;12.50;99.90
51853;DHT22;37894;53.172;6.598;2022-10-16T04:30:21;12.50;99.90
51853;DHT22;37894;53.172;6.598;2022-10-16T04:32:51;12.50;99.90
51853;DHT22;37894;53.172;6.598;2022-10-16T04:35:18;12.40;99.90
51853;DHT22;37894;53.172;6.598;2022-10-16T04:37:44;12.40;99.90
51853;DHT22;37894;53.172;6.598;2022-10-16T04:40:10;12.40;99.90
51853;DHT22;37894;53.172;6.598;2022-10-16T04:42:36;12.40;99.90
51853;DHT22;37894;53.172;6.598;2022-10-16T04:45:03;12.40;99.90
51853;DHT22;37894;53.172;6.598;2022-10-16T04:47:28;12.40;99.90
51853;DHT22;37894;53.172;6.598;2022-10-16T04:49:54;12.40;99.90
51853;DHT22;37894;53.172;6.598;2022-10-16T04:52:20;12.40;99.90
51853;DHT22;37894;53.172;6.598;2022-10-16T04:54:47;12.40;99.90
51853;DHT22;37894;53.172;6.598;2022-10-16T04:57:12;12.40;99.90
51853;DHT22;37894;53.172;6.598;2022-10-16T04:59:38;12.50;99.90
51853;DHT22;37894;53.172;6.598;2022-10-16T05:02:04;12.50;99.90
51853;DHT22;37894;53.172;6.598;2022-10-16T05:04:30;12.50;99.90
51853;DHT22;37894;53.172;6.598;2022-10-16T05:06:55;12.70;99.90
51853;DHT22;37894;53.172;6.598;2022-10-16T05:09:21;12.50;99.90
51853;DHT22;37894;53.172;6.598;2022-10-16T05:11:47;12.50;99.90
51853;DHT22;37894;53.172;6.598;2022-10-16T05:14:12;12.50;99.90
51853;DHT22;37894;53.172;6.598;2022-10-16T05:16:41;12.40;99.90
51853;DHT22;37894;53.172;6.598;2022-10-16T05:19:07;12.40;99.90
51853;DHT22;37894;53.172;6.598;2022-10-16T05:21:33;12.40;99.90
51853;DHT22;37894;53.172;6.598;2022-10-16T05:23:59;12.40;99.90
51853;DHT22;37894;53.172;6.598;2022-10-16T05:26:24;12.40;99.90
51853;DHT22;37894;53.172;6.598;2022-10-16T05:28:50;12.40;99.90
51853;DHT22;37894;53.172;6.598;2022-10-16T05:31:16;12.30;99.90
51853;DHT22;37894;53.172;6.598;2022-10-16T05:33:42;12.30;99.90
51853;DHT22;37894;53.172;6.598;2022-10-16T05:36:10;12.30;99.90
51853;DHT22;37894;53.172;6.598;2022-10-16T05:38:36;12.30;99.90
51853;DHT22;37894;53.172;6.598;2022-10-16T05:41:03;12.30;99.90
51853;DHT22;37894;53.172;6.598;2022-10-16T05:43:30;12.30;99.90
51853;DHT22;37894;53.172;6.598;2022-10-16T05:46:03;12.30;99.90
51853;DHT22;37894;53.172;6.598;2022-10-16T05:48:30;12.30;99.90
51853;DHT22;37894;53.172;6.598;2022-10-16T05:51:07;13.20;99.90
51853;DHT22;37894;53.172;6.598;2022-10-16T05:53:35;12.40;99.90
51853;DHT22;37894;53.172;6.598;2022-10-16T05:56:02;12.30;99.90
51853;DHT22;37894;53.172;6.598;2022-10-16T05:58:33;12.40;99.90
51853;DHT22;37894;53.172;6.598;2022-10-16T06:01:03;12.40;99.90
51853;DHT22;37894;53.172;6.598;2022-10-16T06:03:29;12.40;99.90
51853;DHT22;37894;53.172;6.598;2022-10-16T06:05:54;12.40;99.90
51853;DHT22;37894;53.172;6.598;2022-10-16T06:08:22;12.40;99.90
51853;DHT22;37894;53.172;6.598;2022-10-16T06:10:49;12.40;99.90
51853;DHT22;37894;53.172;6.598;2022-10-16T06:13:14;12.40;99.90
51853;DHT22;37894;53.172;6.598;2022-10-16T06:15:41;12.40;99.90
51853;DHT22;37894;53.172;6.598;2022-10-16T06:18:08;12.40;99.90
51853;DHT22;37894;53.172;6.598;2022-10-16T06:20:35;12.40;99.90
51853;DHT22;37894;53.172;6.598;2022-10-16T06:23:00;12.40;99.90
51853;DHT22;37894;53.172;6.598;2022-10-16T06:25:26;12.40;99.90
51853;DHT22;37894;53.172;6.598;2022-10-16T06:27:52;12.50;99.90
51853;DHT22;37894;53.172;6.598;2022-10-16T06:30:17;12.50;99.90
51853;DHT22;37894;53.172;6.598;2022-10-16T06:32:43;12.60;99.90
51853;DHT22;37894;53.172;6.598;2022-10-16T06:35:09;12.60;99.90
51853;DHT22;37894;53.172;6.598;2022-10-16T06:37:34;11.90;99.90
51853;DHT22;37894;53.172;6.598;2022-10-16T06:40:00;12.40;99.90
51853;DHT22;37894;53.172;6.598;2022-10-16T06:42:26;12.70;99.90
51853;DHT22;37894;53.172;6.598;2022-10-16T06:44:51;12.70;99.90
51853;DHT22;37894;53.172;6.598;2022-10-16T06:47:17;12.70;99.90
51853;DHT22;37894;53.172;6.598;2022-10-16T06:49:43;12.80;99.90
51853;DHT22;37894;53.172;6.598;2022-10-16T06:52:08;12.80;99.90
51853;DHT22;37894;53.172;6.598;2022-10-16T06:54:37;12.90;99.90
51853;DHT22;37894;53.172;6.598;2022-10-16T06:57:02;13.00;99.90
51853;DHT22;37894;53.172;6.598;2022-10-16T06:59:28;13.00;99.90
51853;DHT22;37894;53.172;6.598;2022-10-16T07:01:54;13.00;99.90
51853;DHT22;37894;53.172;6.598;2022-10-16T07:04:19;13.20;99.90
51853;DHT22;37894;53.172;6.598;2022-10-16T07:06:45;13.00;99.90
51853;DHT22;37894;53.172;6.598;2022-10-16T07:09:11;13.10;99.90
51853;DHT22;37894;53.172;6.598;2022-10-16T07:11:38;13.10;99.90
51853;DHT22;37894;53.172;6.598;2022-10-16T07:14:05;13.10;99.90
51853;DHT22;37894;53.172;6.598;2022-10-16T07:16:32;13.10;99.90
51853;DHT22;37894;53.172;6.598;2022-10-16T07:19:00;13.10;99.90
51853;DHT22;37894;53.172;6.598;2022-10-16T07:21:28;13.10;99.90
51853;DHT22;37894;53.172;6.598;2022-10-16T07:23:59;13.10;99.90
51853;DHT22;37894;53.172;6.598;2022-10-16T07:26:26;13.10;99.90
51853;DHT22;37894;53.172;6.598;2022-10-16T07:28:52;13.10;99.90
51853;DHT22;37894;53.172;6.598;2022-10-16T07:31:19;13.10;99.90
51853;DHT22;37894;53.172;6.598;2022-10-16T07:33:46;13.00;99.90
51853;DHT22;37894;53.172;6.598;2022-10-16T07:36:14;13.00;99.90
51853;DHT22;37894;53.172;6.598;2022-10-16T07:38:40;13.10;99.90
51853;DHT22;37894;53.172;6.598;2022-10-16T07:41:10;13.00;99.90
51853;DHT22;37894;53.172;6.598;2022-10-16T07:43:36;13.00;99.90
51853;DHT22;37894;53.172;6.598;2022-10-16T07:46:02;13.00;99.90
51853;DHT22;37894;53.172;6.598;2022-10-16T07:48:31;13.00;99.90
51853;DHT22;37894;53.172;6.598;2022-10-16T07:51:01;13.00;99.90
51853;DHT22;37894;53.172;6.598;2022-10-16T07:53:27;13.00;99.90
51853;DHT22;37894;53.172;6.598;2022-10-16T07:55:57;13.10;99.90
51853;DHT22;37894;53.172;6.598;2022-10-16T07:58:24;13.20;99.90
51853;DHT22;37894;53.172;6.598;2022-10-16T08:00:49;13.20;99.90
51853;DHT22;37894;53.172;6.598;2022-10-16T08:03:15;13.30;99.90
51853;DHT22;37894;53.172;6.598;2022-10-16T08:05:41;13.40;99.90
51853;DHT22;37894;53.172;6.598;2022-10-16T08:08:10;13.50;99.90
51853;DHT22;37894;53.172;6.598;2022-10-16T08:10:36;13.60;99.90
51853;DHT22;37894;53.172;6.598;2022-10-16T08:13:02;13.70;99.90
51853;DHT22;37894;53.172;6.598;2022-10-16T08:15:27;13.80;99.90
51853;DHT22;37894;53.172;6.598;2022-10-16T08:18:01;13.80;99.90
51853;DHT22;37894;53.172;6.598;2022-10-16T08:20:28;13.80;99.90
51853;DHT22;37894;53.172;6.598;2022-10-16T08:22:54;13.80;99.90
51853;DHT22;37894;53.172;6.598;2022-10-16T08:25:22;13.80;99.90
51853;DHT22;37894;53.172;6.598;2022-10-16T08:27:48;13.90;99.90
51853;DHT22;37894;53.172;6.598;2022-10-16T08:30:15;13.80;99.90
51853;DHT22;37894;53.172;6.598;2022-10-16T08:32:41;13.90;99.90
51853;DHT22;37894;53.172;6.598;2022-10-16T08:35:09;13.90;99.90
51853;DHT22;37894;53.172;6.598;2022-10-16T08:37:34;14.00;99.90
51853;DHT22;37894;53.172;6.598;2022-10-16T08:40:00;14.10;99.90
51853;DHT22;37894;53.172;6.598;2022-10-16T08:42:55;14.20;99.90
51853;DHT22;37894;53.172;6.598;2022-10-16T08:45:43;14.30;99.90
51853;DHT22;37894;53.172;6.598;2022-10-16T08:50:56;14.50;99.90
51853;DHT22;37894;53.172;6.598;2022-10-16T08:53:30;14.60;99.90
51853;DHT22;37894;53.172;6.598;2022-10-16T08:55:56;14.70;99.90
51853;DHT22;37894;53.172;6.598;2022-10-16T08:58:28;14.70;99.90
51853;DHT22;37894;53.172;6.598;2022-10-16T09:01:13;14.70;99.90
51853;DHT22;37894;53.172;6.598;2022-10-16T09:06:46;14.90;99.90
51853;DHT22;37894;53.172;6.598;2022-10-16T09:12:15;15.00;99.90
51853;DHT22;37894;53.172;6.598;2022-10-16T09:15:01;15.50;99.90
51853;DHT22;37894;53.172;6.598;2022-10-16T09:20:45;15.40;99.90
51853;DHT22;37894;53.172;6.598;2022-10-16T09:23:18;15.40;99.90
51853;DHT22;37894;53.172;6.598;2022-10-16T09:25:50;15.30;99.90
51853;DHT22;37894;53.172;6.598;2022-10-16T09:28:18;15.30;99.90
51853;DHT22;37894;53.172;6.598;2022-10-16T09:30:44;15.30;99.90
51853;DHT22;37894;53.172;6.598;2022-10-16T09:33:12;15.30;99.90
51853;DHT22;37894;53.172;6.598;2022-10-16T09:35:40;15.40;99.90
51853;DHT22;37894;53.172;6.598;2022-10-16T09:38:07;15.50;99.90
51853;DHT22;37894;53.172;6.598;2022-10-16T09:40:36;15.60;99.90
51853;DHT22;37894;53.172;6.598;2022-10-16T09:43:38;15.70;99.90
51853;DHT22;37894;53.172;6.598;2022-10-16T09:46:07;15.70;99.90
51853;DHT22;37894;53.172;6.598;2022-10-16T09:48:44;15.60;99.90
51853;DHT22;37894;53.172;6.598;2022-10-16T09:51:28;15.50;99.90
51853;DHT22;37894;53.172;6.598;2022-10-16T09:53:57;15.60;99.90
51853;DHT22;37894;53.172;6.598;2022-10-16T09:56:29;15.50;99.90
51853;DHT22;37894;53.172;6.598;2022-10-16T09:59:10;15.50;99.90
51853;DHT22;37894;53.172;6.598;2022-10-16T10:01:38;15.70;99.90
51853;DHT22;37894;53.172;6.598;2022-10-16T10:04:05;15.80;99.90
51853;DHT22;37894;53.172;6.598;2022-10-16T10:06:34;15.90;99.90
51853;DHT22;37894;53.172;6.598;2022-10-16T10:09:17;16.00;99.90
51853;DHT22;37894;53.172;6.598;2022-10-16T10:11:49;16.10;99.90
51853;DHT22;37894;53.172;6.598;2022-10-16T10:14:35;16.20;99.90
51853;DHT22;37894;53.172;6.598;2022-10-16T10:19:39;16.20;99.90
51853;DHT22;37894;53.172;6.598;2022-10-16T10:30:34;16.40;99.90
51853;DHT22;37894;53.172;6.598;2022-10-16T10:47:52;16.90;99.90
51853;DHT22;37894;53.172;6.598;2022-10-16T10:50:41;16.90;99.90
51853;DHT22;37894;53.172;6.598;2022-10-16T10:53:25;16.90;99.90
51853;DHT22;37894;53.172;6.598;2022-10-16T11:01:52;17.30;99.90
51853;DHT22;37894;53.172;6.598;2022-10-16T11:09:51;17.40;99.90
51853;DHT22;37894;53.172;6.598;2022-10-16T11:12:25;17.50;99.90
51853;DHT22;37894;53.172;6.598;2022-10-16T11:15:12;17.70;99.90
51853;DHT22;37894;53.172;6.598;2022-10-16T11:17:43;17.80;99.90
51853;DHT22;37894;53.172;6.598;2022-10-16T11:20:23;17.90;99.90
51853;DHT22;37894;53.172;6.598;2022-10-16T11:22:56;18.20;99.90
51853;DHT22;37894;53.172;6.598;2022-10-16T11:25:27;18.30;99.90
51853;DHT22;37894;53.172;6.598;2022-10-16T11:30:30;18.70;99.90
51853;DHT22;37894;53.172;6.598;2022-10-16T11:33:04;18.70;99.90
51853;DHT22;37894;53.172;6.598;2022-10-16T11:35:55;18.70;99.90
51853;DHT22;37894;53.172;6.598;2022-10-16T11:38:30;18.80;99.90
51853;DHT22;37894;53.172;6.598;2022-10-16T11:43:42;19.20;99.90
51853;DHT22;37894;53.172;6.598;2022-10-16T11:46:16;19.30;99.90
51853;DHT22;37894;53.172;6.598;2022-10-16T11:48:50;19.20;99.90
51853;DHT22;37894;53.172;6.598;2022-10-16T11:54:04;18.80;99.90
51853;DHT22;37894;53.172;6.598;2022-10-16T11:56:32;18.60;99.90
51853;DHT22;37894;53.172;6.598;2022-10-16T11:59:46;18.50;99.90
51853;DHT22;37894;53.172;6.598;2022-10-16T12:05:35;18.20;99.90
51853;DHT22;37894;53.172;6.598;2022-10-16T12:08:13;17.90;99.90
51853;DHT22;37894;53.172;6.598;2022-10-16T12:10:43;17.80;99.90
51853;DHT22;37894;53.172;6.598;2022-10-16T12:13:29;17.60;99.90
51853;DHT22;37894;53.172;6.598;2022-10-16T12:16:25;17.60;99.90
51853;DHT22;37894;53.172;6.598;2022-10-16T12:19:10;17.50;99.90
51853;DHT22;37894;53.172;6.598;2022-10-16T12:21:36;17.50;99.90
51853;DHT22;37894;53.172;6.598;2022-10-16T12:24:03;17.50;99.90
51853;DHT22;37894;53.172;6.598;2022-10-16T12:26:33;17.50;99.90
51853;DHT22;37894;53.172;6.598;2022-10-16T12:31:45;17.60;99.90
51853;DHT22;37894;53.172;6.598;2022-10-16T12:34:41;17.60;99.90
51853;DHT22;37894;53.172;6.598;2022-10-16T12:37:14;17.70;99.90
51853;DHT22;37894;53.172;6.598;2022-10-16T12:39:41;17.70;99.90
51853;DHT22;37894;53.172;6.598;2022-10-16T12:44:52;17.70;99.90
51853;DHT22;37894;53.172;6.598;2022-10-16T12:47:23;17.60;99.90
51853;DHT22;37894;53.172;6.598;2022-10-16T12:49:52;17.50;99.90
51853;DHT22;37894;53.172;6.598;2022-10-16T12:52:35;17.30;99.90
51853;DHT22;37894;53.172;6.598;2022-10-16T12:55:03;17.20;99.90
51853;DHT22;37894;53.172;6.598;2022-10-16T13:00:57;16.90;99.90
51853;DHT22;37894;53.172;6.598;2022-10-16T13:03:48;16.80;99.90
51853;DHT22;37894;53.172;6.598;2022-10-16T13:06:33;16.60;99.90
51853;DHT22;37894;53.172;6.598;2022-10-16T13:20:36;16.30;99.90
51853;DHT22;37894;53.172;6.598;2022-10-16T13:28:31;16.30;99.90
51853;DHT22;37894;53.172;6.598;2022-10-16T13:30:58;16.30;99.90
51853;DHT22;37894;53.172;6.598;2022-10-16T13:33:40;16.30;99.90
51853;DHT22;37894;53.172;6.598;2022-10-16T13:36:20;16.30;99.90
51853;DHT22;37894;53.172;6.598;2022-10-16T13:38:47;16.30;99.90
51853;DHT22;37894;53.172;6.598;2022-10-16T13:41:17;16.30;99.90
51853;DHT22;37894;53.172;6.598;2022-10-16T13:43:47;16.30;99.90
51853;DHT22;37894;53.172;6.598;2022-10-16T13:46:19;16.30;99.90
51853;DHT22;37894;53.172;6.598;2022-10-16T13:49:02;16.30;99.90
51853;DHT22;37894;53.172;6.598;2022-10-16T13:51:29;16.30;99.90
51853;DHT22;37894;53.172;6.598;2022-10-16T13:53:56;16.30;99.90
51853;DHT22;37894;53.172;6.598;2022-10-16T13:56:26;16.40;99.90
51853;DHT22;37894;53.172;6.598;2022-10-16T13:59:06;16.40;99.90
51853;DHT22;37894;53.172;6.598;2022-10-16T14:01:46;16.40;99.90
51853;DHT22;37894;53.172;6.598;2022-10-16T14:04:13;16.40;99.90
51853;DHT22;37894;53.172;6.598;2022-10-16T14:06:45;16.40;99.90
51853;DHT22;37894;53.172;6.598;2022-10-16T14:11:51;16.30;99.90
51853;DHT22;37894;53.172;6.598;2022-10-16T14:14:22;16.20;99.90
51853;DHT22;37894;53.172;6.598;2022-10-16T14:16:48;16.20;99.90
51853;DHT22;37894;53.172;6.598;2022-10-16T14:19:24;16.10;99.90
51853;DHT22;37894;53.172;6.598;2022-10-16T14:21:51;16.10;99.90
51853;DHT22;37894;53.172;6.598;2022-10-16T14:24:27;16.20;99.90
51853;DHT22;37894;53.172;6.598;2022-10-16T14:26:57;16.20;99.90
51853;DHT22;37894;53.172;6.598;2022-10-16T14:29:25;16.10;99.90
51853;DHT22;37894;53.172;6.598;2022-10-16T14:31:59;16.10;99.90
51853;DHT22;37894;53.172;6.598;2022-10-16T14:34:33;16.10;99.90
51853;DHT22;37894;53.172;6.598;2022-10-16T14:37:01;16.00;99.90
51853;DHT22;37894;53.172;6.598;2022-10-16T14:39:33;15.90;99.90
51853;DHT22;37894;53.172;6.598;2022-10-16T14:42:02;15.80;99.90
51853;DHT22;37894;53.172;6.598;2022-10-16T14:44:32;15.80;99.90
51853;DHT22;37894;53.172;6.598;2022-10-16T14:47:07;15.80;99.90
51853;DHT22;37894;53.172;6.598;2022-10-16T14:49:34;15.70;99.90
51853;DHT22;37894;53.172;6.598;2022-10-16T14:52:00;15.70;99.90
51853;DHT22;37894;53.172;6.598;2022-10-16T14:54:27;15.60;99.90
51853;DHT22;37894;53.172;6.598;2022-10-16T14:56:55;15.60;99.90
51853;DHT22;37894;53.172;6.598;2022-10-16T14:59:37;15.50;99.90
51853;DHT22;37894;53.172;6.598;2022-10-16T15:02:25;15.50;99.90
51853;DHT22;37894;53.172;6.598;2022-10-16T15:04:52;15.40;99.90
51853;DHT22;37894;53.172;6.598;2022-10-16T15:07:21;15.40;99.90
51853;DHT22;37894;53.172;6.598;2022-10-16T15:09:47;15.40;99.90
51853;DHT22;37894;53.172;6.598;2022-10-16T15:12:12;15.40;99.90
51853;DHT22;37894;53.172;6.598;2022-10-16T15:14:38;15.30;99.90
51853;DHT22;37894;53.172;6.598;2022-10-16T15:17:04;15.30;99.90
51853;DHT22;37894;53.172;6.598;2022-10-16T15:19:30;15.30;99.90
51853;DHT22;37894;53.172;6.598;2022-10-16T15:21:56;15.30;99.90
51853;DHT22;37894;53.172;6.598;2022-10-16T15:24:21;15.20;99.90
51853;DHT22;37894;53.172;6.598;2022-10-16T15:26:47;15.20;99.90
51853;DHT22;37894;53.172;6.598;2022-10-16T15:29:15;15.20;99.90
51853;DHT22;37894;53.172;6.598;2022-10-16T15:31:41;15.10;99.90
51853;DHT22;37894;53.172;6.598;2022-10-16T15:34:09;15.10;99.90
51853;DHT22;37894;53.172;6.598;2022-10-16T15:36:37;15.10;99.90
51853;DHT22;37894;53.172;6.598;2022-10-16T15:39:04;15.00;99.90
51853;DHT22;37894;53.172;6.598;2022-10-16T15:41:30;15.00;99.90
51853;DHT22;37894;53.172;6.598;2022-10-16T15:43:55;14.90;99.90
51853;DHT22;37894;53.172;6.598;2022-10-16T15:46:23;14.90;99.90
51853;DHT22;37894;53.172;6.598;2022-10-16T15:48:50;14.90;99.90
51853;DHT22;37894;53.172;6.598;2022-10-16T15:51:17;14.80;99.90
51853;DHT22;37894;53.172;6.598;2022-10-16T15:53:44;14.80;99.90
51853;DHT22;37894;53.172;6.598;2022-10-16T15:56:12;14.70;99.90
51853;DHT22;37894;53.172;6.598;2022-10-16T15:58:38;14.70;99.90
51853;DHT22;37894;53.172;6.598;2022-10-16T16:01:04;14.60;99.90
51853;DHT22;37894;53.172;6.598;2022-10-16T16:03:31;14.50;99.90
51853;DHT22;37894;53.172;6.598;2022-10-16T16:05:57;14.50;99.90
51853;DHT22;37894;53.172;6.598;2022-10-16T16:08:23;14.40;99.90
51853;DHT22;37894;53.172;6.598;2022-10-16T16:11:06;14.40;99.90
51853;DHT22;37894;53.172;6.598;2022-10-16T16:13:32;14.30;99.90
51853;DHT22;37894;53.172;6.598;2022-10-16T16:15:58;14.30;99.90
51853;DHT22;37894;53.172;6.598;2022-10-16T16:18:24;14.20;99.90
51853;DHT22;37894;53.172;6.598;2022-10-16T16:20:50;14.10;99.90
51853;DHT22;37894;53.172;6.598;2022-10-16T16:23:16;14.00;99.90
51853;DHT22;37894;53.172;6.598;2022-10-16T16:25:42;14.00;99.90
51853;DHT22;37894;53.172;6.598;2022-10-16T16:28:08;13.90;99.90
51853;DHT22;37894;53.172;6.598;2022-10-16T16:30:36;13.90;99.90
51853;DHT22;37894;53.172;6.598;2022-10-16T16:33:02;13.80;99.90
51853;DHT22;37894;53.172;6.598;2022-10-16T16:35:28;13.70;99.90
51853;DHT22;37894;53.172;6.598;2022-10-16T16:37:54;13.70;99.90
51853;DHT22;37894;53.172;6.598;2022-10-16T16:40:20;13.60;99.90
51853;DHT22;37894;53.172;6.598;2022-10-16T16:42:48;13.50;99.90
51853;DHT22;37894;53.172;6.598;2022-10-16T16:45:14;13.40;99.90
51853;DHT22;37894;53.172;6.598;2022-10-16T16:47:39;13.40;99.90
51853;DHT22;37894;53.172;6.598;2022-10-16T16:50:06;13.30;99.90
51853;DHT22;37894;53.172;6.598;2022-10-16T16:52:33;13.30;99.90
51853;DHT22;37894;53.172;6.598;2022-10-16T16:54:59;13.20;99.90
51853;DHT22;37894;53.172;6.598;2022-10-16T16:57:25;13.10;99.90
51853;DHT22;37894;53.172;6.598;2022-10-16T16:59:50;13.10;99.90
51853;DHT22;37894;53.172;6.598;2022-10-16T17:02:17;13.00;99.90
51853;DHT22;37894;53.172;6.598;2022-10-16T17:04:43;12.90;99.90
51853;DHT22;37894;53.172;6.598;2022-10-16T17:07:08;12.80;99.90
51853;DHT22;37894;53.172;6.598;2022-10-16T17:09:34;12.80;99.90
51853;DHT22;37894;53.172;6.598;2022-10-16T17:12:00;12.70;99.90
51853;DHT22;37894;53.172;6.598;2022-10-16T17:14:26;12.70;99.90
51853;DHT22;37894;53.172;6.598;2022-10-16T17:16:51;12.60;99.90
51853;DHT22;37894;53.172;6.598;2022-10-16T17:19:18;12.50;99.90
51853;DHT22;37894;53.172;6.598;2022-10-16T17:21:47;12.50;99.90
51853;DHT22;37894;53.172;6.598;2022-10-16T17:24:13;12.50;99.90